Main page
METAR-TAF:

METAR-TAF

Airports :

Luena Airport

Luena, Angola

latitude: 11-46-05S, longitude: 19-53-50E, elevation: 1329 m

Current weather observation

The report was made 13 hours and 19 minutes ago, at 16:00 UTC
Wind 4 kt from the East
Temperature 26°C
Humidity 58%
Pressure 1018 hPa
Visibility 10 km or more
Few clouds at a height of 3000 ft

METAR: FNUE 191600Z 09004KT 9999 FEW030 26/17 Q1018

Time: 06:19 (05:19 UTC)

Forecast

The report was made 6 hours and 19 minutes ago, at 23:00 UTC
Forecast valid from 20 at 00 UTC to 20 at 12 UTC
Wind 6 kt from the East/Southeast
Visibility 10 km or more
Scattered clouds at a height of 2500 ft

TAF: FNUE 192300Z 2000/2012 12006KT 9999 SCT025

Weather observations and forecasts of more than 4000 airports (METAR and TAF reports).

The available stations are represented by yellow and red dots on the map.

Hover mouse over dot to see the name of the station.

Then click to see weather observations and forecasts.

To change the map : click on the green buttons with a black cross to zoom in, on the green button with a dash to zoom out, or on the green arrows for adjacent maps.


METAR-TAF: